Current Conditions - Area Ports

 

CYWH - Victoria Harbour, British Columbia, Canada
Distance from station: WSW 10km
Updated: 07/18/2018 9:00pm
NOT Current
Mostly cloudy
Mostly cloudy
 Wind from WSW
Wind: WSW 24 km/h
Temperature: 15°C
Dew Point: 10°C
Humidity: 72%
Barometer: 1019.6 hPa
Clouds: Mostly cloudy
Visibility: 24 km
Cloud details: Few Clouds 457 m
Mostly cloudy 6706 m
2018/07/19 04:00 CYWH 190400Z 24013KT 15SM FEW015 BKN220 15/10 A3011 RMK SC1CI5 SC TR LAST STFD OBS/NEXT 191300 UTC SLP197
KFHR - Friday Harbor, Washington, USA
Distance from station: ENE 19km
Updated: 07/18/2018 11:53pm
Partly cloudy
Partly cloudy
 Wind from SW
Wind: SW 11 km/h
Temperature: 14°C
Dew Point: 9°C
Humidity: 72%
Barometer: 1020 hPa
Clouds: Partly cloudy
Visibility: 16 km
Cloud details: Partly cloudy 1311 m
2018/07/19 06:53 KFHR 190653Z AUTO 23006KT 10SM SCT043 14/09 A3012 RMK AO2 SLP199 T01390094 TSNO
 
KORS - Eastsound/Orcas, Washington, USA
Distance from station: NE 38km
Updated: 07/18/2018 11:55pm

 Wind from S
Wind: S 13 km/h
Temperature: 14°C
Dew Point: 11°C
Humidity: 82%
Barometer: 1019.3 hPa
Visibility: 16 km
2018/07/19 06:55 KORS 190655Z AUTO 17007KT 10SM 14/11 A3010 RMK AO2
KNUW - Whidbey Is. Nas, Washington, USA
Distance from station: ESE 47km
Updated: 07/18/2018 11:56pm
Mostly cloudy
Mostly cloudy
 Wind from SW
Wind: SW 24 km/h
Temperature: 15°C
Dew Point: 11°C
Humidity: 77%
Barometer: 1022 hPa
Clouds: Mostly cloudy
Visibility: 16 km
Cloud details: Few Clouds 914 m
Mostly cloudy 1372 m
Mostly cloudy 2134 m
2018/07/19 06:56 KNUW 190656Z 23013KT 10SM FEW030 BKN045 BKN070 15/11 A3018 RMK AO2 SLP218 T01500106 $
 
CWEZ - Saturna Isl (map, British Columbia, Canada
Distance from station: NNE 40km
Updated: 07/19/2018 12:00am

 Wind from SW
Wind: SW 24 km/h
Temperature: 14°C
Dew Point: 10°C
Humidity: 77%
2018/07/19 07:00 CWEZ 190700Z AUTO 22013KT 14/10 RMK AO1 PK WND 22017/0655 SLP189 T01350102 51003
CYCD - Nanaimo Airport, British Columbia, Canada
Distance from station: NW 80km
Updated: 07/18/2018 9:00pm
NOT Current
Mostly cloudy
Mostly cloudy
 Wind from NE
Wind: NE 6 km/h
Temperature: 19°C
Dew Point: 15°C
Humidity: 78%
Barometer: 1018.6 hPa
Clouds: Mostly cloudy
Visibility: 48 km
Cloud details: Few Clouds 1524 m
Few Clouds 3353 m
Mostly cloudy 7010 m
2018/07/19 04:00 CYCD 190400Z 04003KT 30SM FEW050 FEW110 BKN230 19/15 A3008 RMK SC1AC1CI3 LAST STFD OBS/NEXT 191300Z SLP188 DENSITY ALT 500FT
 
CWVF - Sand Heads (ls), British Columbia, Canada
Distance from station: N 72km
Updated: 07/19/2018 12:00am

 Wind from E
Wind: E 24 km/h
Temperature: 16°C
Dew Point: 13°C
Humidity: 83%
2018/07/19 07:00 CWVF 190700Z AUTO 10013KT 16/13 RMK AO1 T01610127
CWQK - Race Rocks Autob, British Columbia, Canada
Distance from station: SW 26km
Updated: 07/19/2018 12:00am

 Wind from W
Wind: W 65 km/h
Temperature: 12°C
Dew Point: 12°C
Humidity: 100%
2018/07/19 07:00 CWQK 190700Z AUTO 28035KT 12/12 RMK AO1 PK WND 28040/0632 SLP192 T01150123 56015
 
CWSP - Sheringham Autob, British Columbia, Canada
Distance from station: W 49km
Updated: 07/11/2018 6:00pm
NOT Current

 Wind from WNW
Wind: WNW 28 km/h
2018/07/12 01:00 CWSP 120100Z AUTO 29015KT RMK AO1 PK WND 30018/0045 58017